Terminal Aerodrome Forecast
Issued by NWS

Current Version | Previous Version | Text Only | Print | Product List | Glossary On
Versions: 1 2 3 4 5 6 7 8 9 10 11 12 13 14
000
FTUS42 KGSP 302335
TAFGMU
TAF
KGMU 302335Z 3100/3124 22008KT 3SM -TSRA BR FEW030 BKN050CB OVC100
     FM310100 32003KT P6SM SCT250
      TEMPO 3109/3113 03003KT 3SM BR SCT020 SCT250
     FM311300 03004KT P6SM SCT035
     FM312100 09004KT P6SM SCT045 PROB30 3121/3124 4SM -TSRA
      BKN045CB=

USA.gov is the U.S. government's official web portal to all federal, state and local government web resources and services.